sensor_id;sensor_type;location;lat;lon;timestamp;P1;durP1;ratioP1;P2;durP2;ratioP2
45940;SDS011;31858;46.008;8.978;2023-02-15T00:06:26;10.80;;;6.70;;
45940;SDS011;31858;46.008;8.978;2023-02-15T00:16:28;8.65;;;4.22;;
45940;SDS011;31858;46.008;8.978;2023-02-15T00:26:31;17.40;;;5.25;;
45940;SDS011;31858;46.008;8.978;2023-02-15T00:36:33;8.20;;;4.88;;
45940;SDS011;31858;46.008;8.978;2023-02-15T00:46:36;7.90;;;5.45;;
45940;SDS011;31858;46.008;8.978;2023-02-15T00:56:37;11.48;;;5.88;;
45940;SDS011;31858;46.008;8.978;2023-02-15T01:06:40;6.70;;;3.15;;
45940;SDS011;31858;46.008;8.978;2023-02-15T01:16:42;7.90;;;3.10;;
45940;SDS011;31858;46.008;8.978;2023-02-15T01:26:45;3.95;;;3.00;;
45940;SDS011;31858;46.008;8.978;2023-02-15T01:36:46;5.20;;;3.15;;
45940;SDS011;31858;46.008;8.978;2023-02-15T01:46:50;4.80;;;3.17;;
45940;SDS011;31858;46.008;8.978;2023-02-15T01:56:54;7.07;;;3.83;;
45940;SDS011;31858;46.008;8.978;2023-02-15T02:07:00;3.92;;;2.65;;
45940;SDS011;31858;46.008;8.978;2023-02-15T02:17:05;5.85;;;2.50;;
45940;SDS011;31858;46.008;8.978;2023-02-15T02:27:19;3.77;;;2.90;;
45940;SDS011;31858;46.008;8.978;2023-02-15T02:37:30;4.30;;;2.40;;
45940;SDS011;31858;46.008;8.978;2023-02-15T02:47:43;2.75;;;2.30;;
45940;SDS011;31858;46.008;8.978;2023-02-15T02:57:50;4.72;;;2.25;;
45940;SDS011;31858;46.008;8.978;2023-02-15T03:07:54;4.68;;;2.72;;
45940;SDS011;31858;46.008;8.978;2023-02-15T03:17:59;2.60;;;2.17;;
45940;SDS011;31858;46.008;8.978;2023-02-15T03:28:05;3.20;;;2.30;;
45940;SDS011;31858;46.008;8.978;2023-02-15T03:38:10;3.65;;;2.40;;
45940;SDS011;31858;46.008;8.978;2023-02-15T03:48:18;6.63;;;2.38;;
45940;SDS011;31858;46.008;8.978;2023-02-15T03:58:22;4.80;;;2.55;;
45940;SDS011;31858;46.008;8.978;2023-02-15T04:08:41;3.30;;;2.20;;
45940;SDS011;31858;46.008;8.978;2023-02-15T04:19:01;2.60;;;1.92;;
45940;SDS011;31858;46.008;8.978;2023-02-15T04:29:20;2.70;;;2.20;;
45940;SDS011;31858;46.008;8.978;2023-02-15T04:39:24;2.88;;;2.10;;
45940;SDS011;31858;46.008;8.978;2023-02-15T04:49:26;3.08;;;2.20;;
45940;SDS011;31858;46.008;8.978;2023-02-15T04:59:29;2.75;;;1.95;;
45940;SDS011;31858;46.008;8.978;2023-02-15T05:09:30;3.75;;;2.42;;
45940;SDS011;31858;46.008;8.978;2023-02-15T05:19:33;4.43;;;1.80;;
45940;SDS011;31858;46.008;8.978;2023-02-15T05:29:35;6.95;;;2.03;;
45940;SDS011;31858;46.008;8.978;2023-02-15T05:39:38;2.72;;;1.73;;
45940;SDS011;31858;46.008;8.978;2023-02-15T05:49:39;2.55;;;2.03;;
45940;SDS011;31858;46.008;8.978;2023-02-15T05:59:42;1.75;;;1.65;;
45940;SDS011;31858;46.008;8.978;2023-02-15T06:09:44;3.25;;;2.42;;
45940;SDS011;31858;46.008;8.978;2023-02-15T06:19:47;3.58;;;2.40;;
45940;SDS011;31858;46.008;8.978;2023-02-15T06:29:48;1.73;;;1.50;;
45940;SDS011;31858;46.008;8.978;2023-02-15T06:39:51;1.95;;;1.77;;
45940;SDS011;31858;46.008;8.978;2023-02-15T06:49:53;2.58;;;2.08;;
45940;SDS011;31858;46.008;8.978;2023-02-15T06:59:56;3.20;;;1.95;;
45940;SDS011;31858;46.008;8.978;2023-02-15T07:09:58;2.55;;;2.00;;
45940;SDS011;31858;46.008;8.978;2023-02-15T07:20:01;2.28;;;1.65;;
45940;SDS011;31858;46.008;8.978;2023-02-15T07:30:03;4.20;;;1.70;;
45940;SDS011;31858;46.008;8.978;2023-02-15T07:40:08;2.05;;;1.52;;
45940;SDS011;31858;46.008;8.978;2023-02-15T07:50:10;3.35;;;2.05;;
45940;SDS011;31858;46.008;8.978;2023-02-15T08:00:13;2.22;;;1.88;;
45940;SDS011;31858;46.008;8.978;2023-02-15T08:10:16;2.75;;;1.35;;
45940;SDS011;31858;46.008;8.978;2023-02-15T08:20:39;2.95;;;2.65;;
45940;SDS011;31858;46.008;8.978;2023-02-15T08:30:41;2.20;;;2.00;;
45940;SDS011;31858;46.008;8.978;2023-02-15T08:40:44;5.35;;;2.38;;
45940;SDS011;31858;46.008;8.978;2023-02-15T08:50:45;3.72;;;2.70;;
45940;SDS011;31858;46.008;8.978;2023-02-15T09:00:48;3.08;;;1.60;;
45940;SDS011;31858;46.008;8.978;2023-02-15T09:10:50;2.25;;;1.80;;
45940;SDS011;31858;46.008;8.978;2023-02-15T09:20:53;3.22;;;2.10;;
45940;SDS011;31858;46.008;8.978;2023-02-15T09:30:56;1.90;;;1.30;;
45940;SDS011;31858;46.008;8.978;2023-02-15T09:41:03;1.50;;;1.40;;
45940;SDS011;31858;46.008;8.978;2023-02-15T09:51:26;4.40;;;1.77;;
45940;SDS011;31858;46.008;8.978;2023-02-15T10:01:50;5.60;;;3.05;;
45940;SDS011;31858;46.008;8.978;2023-02-15T10:12:11;2.70;;;1.90;;
45940;SDS011;31858;46.008;8.978;2023-02-15T10:22:30;3.00;;;1.83;;
45940;SDS011;31858;46.008;8.978;2023-02-15T10:32:44;4.93;;;1.55;;
45940;SDS011;31858;46.008;8.978;2023-02-15T10:43:00;4.15;;;2.50;;
45940;SDS011;31858;46.008;8.978;2023-02-15T10:53:15;2.25;;;1.75;;
45940;SDS011;31858;46.008;8.978;2023-02-15T11:03:35;3.70;;;2.30;;
45940;SDS011;31858;46.008;8.978;2023-02-15T11:13:50;2.58;;;2.15;;
45940;SDS011;31858;46.008;8.978;2023-02-15T11:23:58;3.95;;;2.00;;
45940;SDS011;31858;46.008;8.978;2023-02-15T11:34:02;3.50;;;2.17;;
45940;SDS011;31858;46.008;8.978;2023-02-15T11:44:11;7.60;;;2.55;;
45940;SDS011;31858;46.008;8.978;2023-02-15T11:54:17;3.27;;;2.50;;
45940;SDS011;31858;46.008;8.978;2023-02-15T12:04:24;4.68;;;1.75;;
45940;SDS011;31858;46.008;8.978;2023-02-15T12:14:31;3.28;;;2.70;;
45940;SDS011;31858;46.008;8.978;2023-02-15T12:24:50;6.50;;;3.35;;
45940;SDS011;31858;46.008;8.978;2023-02-15T12:34:55;7.95;;;3.33;;
45940;SDS011;31858;46.008;8.978;2023-02-15T12:45:03;5.25;;;3.38;;
45940;SDS011;31858;46.008;8.978;2023-02-15T12:55:22;5.27;;;4.03;;
45940;SDS011;31858;46.008;8.978;2023-02-15T13:05:29;6.18;;;4.43;;
45940;SDS011;31858;46.008;8.978;2023-02-15T13:15:34;11.27;;;5.63;;
45940;SDS011;31858;46.008;8.978;2023-02-15T13:25:40;8.77;;;6.43;;
45940;SDS011;31858;46.008;8.978;2023-02-15T13:35:50;10.27;;;5.82;;
45940;SDS011;31858;46.008;8.978;2023-02-15T13:46:05;10.05;;;6.20;;
45940;SDS011;31858;46.008;8.978;2023-02-15T13:56:17;14.35;;;7.82;;
45940;SDS011;31858;46.008;8.978;2023-02-15T14:06:38;12.18;;;7.75;;
45940;SDS011;31858;46.008;8.978;2023-02-15T14:16:52;19.02;;;9.07;;
45940;SDS011;31858;46.008;8.978;2023-02-15T14:27:04;16.57;;;10.10;;
45940;SDS011;31858;46.008;8.978;2023-02-15T14:37:13;24.30;;;11.32;;
45940;SDS011;31858;46.008;8.978;2023-02-15T14:47:25;18.33;;;10.80;;
45940;SDS011;31858;46.008;8.978;2023-02-15T14:57:33;21.48;;;11.43;;
45940;SDS011;31858;46.008;8.978;2023-02-15T15:07:38;27.48;;;15.88;;
45940;SDS011;31858;46.008;8.978;2023-02-15T15:17:55;29.73;;;15.43;;
45940;SDS011;31858;46.008;8.978;2023-02-15T15:27:59;16.33;;;9.55;;
45940;SDS011;31858;46.008;8.978;2023-02-15T15:38:10;19.95;;;11.05;;
45940;SDS011;31858;46.008;8.978;2023-02-15T15:48:31;19.67;;;11.57;;
45940;SDS011;31858;46.008;8.978;2023-02-15T15:58:34;16.77;;;10.15;;
45940;SDS011;31858;46.008;8.978;2023-02-15T16:08:38;15.75;;;10.55;;
45940;SDS011;31858;46.008;8.978;2023-02-15T16:18:40;23.45;;;13.48;;
45940;SDS011;31858;46.008;8.978;2023-02-15T16:28:48;18.35;;;12.35;;
45940;SDS011;31858;46.008;8.978;2023-02-15T16:49:19;20.92;;;13.15;;
45940;SDS011;31858;46.008;8.978;2023-02-15T16:59:31;34.10;;;19.45;;
45940;SDS011;31858;46.008;8.978;2023-02-15T17:09:36;32.65;;;19.73;;
45940;SDS011;31858;46.008;8.978;2023-02-15T17:19:51;38.65;;;19.80;;
45940;SDS011;31858;46.008;8.978;2023-02-15T17:29:57;30.20;;;18.08;;
45940;SDS011;31858;46.008;8.978;2023-02-15T17:40:01;34.35;;;19.58;;
45940;SDS011;31858;46.008;8.978;2023-02-15T17:50:18;37.78;;;20.13;;
45940;SDS011;31858;46.008;8.978;2023-02-15T18:00:21;30.05;;;17.42;;
45940;SDS011;31858;46.008;8.978;2023-02-15T18:10:42;31.83;;;17.83;;
45940;SDS011;31858;46.008;8.978;2023-02-15T18:21:01;27.03;;;15.17;;
45940;SDS011;31858;46.008;8.978;2023-02-15T18:31:04;30.10;;;13.55;;
45940;SDS011;31858;46.008;8.978;2023-02-15T18:41:05;30.65;;;15.65;;
45940;SDS011;31858;46.008;8.978;2023-02-15T18:51:11;30.80;;;15.88;;
45940;SDS011;31858;46.008;8.978;2023-02-15T19:01:18;34.10;;;18.87;;
45940;SDS011;31858;46.008;8.978;2023-02-15T19:11:22;31.50;;;18.17;;
45940;SDS011;31858;46.008;8.978;2023-02-15T19:21:24;24.20;;;12.93;;
45940;SDS011;31858;46.008;8.978;2023-02-15T19:31:29;18.33;;;12.13;;
45940;SDS011;31858;46.008;8.978;2023-02-15T19:41:31;23.42;;;12.63;;
45940;SDS011;31858;46.008;8.978;2023-02-15T19:51:35;16.58;;;10.00;;
45940;SDS011;31858;46.008;8.978;2023-02-15T20:01:39;24.80;;;12.77;;
45940;SDS011;31858;46.008;8.978;2023-02-15T20:11:42;17.83;;;11.63;;
45940;SDS011;31858;46.008;8.978;2023-02-15T20:21:44;21.77;;;13.50;;
45940;SDS011;31858;46.008;8.978;2023-02-15T20:31:52;25.00;;;14.05;;
45940;SDS011;31858;46.008;8.978;2023-02-15T20:41:53;24.83;;;12.85;;
45940;SDS011;31858;46.008;8.978;2023-02-15T20:51:56;30.83;;;15.63;;
45940;SDS011;31858;46.008;8.978;2023-02-15T21:01:59;31.60;;;17.08;;
45940;SDS011;31858;46.008;8.978;2023-02-15T21:12:13;24.63;;;14.85;;
45940;SDS011;31858;46.008;8.978;2023-02-15T21:22:16;26.70;;;13.23;;
45940;SDS011;31858;46.008;8.978;2023-02-15T21:32:21;21.05;;;11.85;;
45940;SDS011;31858;46.008;8.978;2023-02-15T21:42:23;23.77;;;12.25;;
45940;SDS011;31858;46.008;8.978;2023-02-15T21:52:43;21.50;;;11.80;;
45940;SDS011;31858;46.008;8.978;2023-02-15T22:02:45;22.70;;;13.10;;
45940;SDS011;31858;46.008;8.978;2023-02-15T22:12:50;20.48;;;11.90;;
45940;SDS011;31858;46.008;8.978;2023-02-15T22:22:52;23.33;;;11.48;;
45940;SDS011;31858;46.008;8.978;2023-02-15T22:32:55;21.08;;;11.60;;
45940;SDS011;31858;46.008;8.978;2023-02-15T22:42:58;18.55;;;10.95;;
45940;SDS011;31858;46.008;8.978;2023-02-15T22:53:03;21.17;;;11.20;;
45940;SDS011;31858;46.008;8.978;2023-02-15T23:03:09;18.60;;;10.60;;
45940;SDS011;31858;46.008;8.978;2023-02-15T23:13:28;22.15;;;11.65;;
45940;SDS011;31858;46.008;8.978;2023-02-15T23:23:32;18.85;;;11.15;;
45940;SDS011;31858;46.008;8.978;2023-02-15T23:33:37;21.75;;;12.07;;
45940;SDS011;31858;46.008;8.978;2023-02-15T23:43:39;21.13;;;11.32;;
45940;SDS011;31858;46.008;8.978;2023-02-15T23:53:44;20.95;;;10.95;;
